Sioux Gateway Col. Bud Day Field
KSUX : now visible

Airfield :











YOU CAN JOIN US ON...

 
LOGIN :

Register | Disclaimer

   EN    FR    IT 

 









Legend :    VFR   Marginal VFR   IFR   Intensive IFR   Very Intensive IFR
Visi :
Ceiling :
>= 8 km
>= 3000ft
5 to 8 km
1000 to 3000 ft
1500m to 5 km
500 to 1000 ft
800 to 1500m
200 to 500 ft
< 800m
< 200 ft
Symbols :   Thunderstorms  Fog  Heavy snow  Heavy precipitations  Wind > 20 kt







- Airport Elevation : 1098 ft
- IATA code : SUX


KSUX - Sioux Gateway Col. Bud Day Field

CURRENT METAR :
  • 221752Z 35016KT 10SM OVC013 09/07 A2999 RMK AO2 PK WND 36026/1658 RAE34 SLP156 P0000 60000 T00940072 10100 20089 53016

EXPIRED METARs :
  • 221652Z 35013G24KT 10SM -RA OVC012 09/07 A2997 RMK AO2 PK WND 34027/1621 RAB51 SLP147 P0000 T00940072
  • 221552Z 36019G25KT 10SM BKN011 OVC016 09/07 A2995 RMK AO2 RAE00B18E31 SLP141 P0000 T00940072

TAF KSUX
Valid from the 22 at 18:00 until the 23 at 18:00 UTC


221723Z 2218/2318 34016G24KT 6SM -SHRA BR OVC011
FM230000 35014G21KT P6SM OVC025
FM230200 35012G17KT P6SM OVC200
FM230500 34008KT P6SM SCT200
KZMP FIR / North America



MET'MAP, your aeronautical weather chart ! - Copyright ORBIFLY December 2007 - Disclaimer

ORBIFLY MET'MAP TEAM :

Programming & Development : Alexandra Zaïnal
Concept & Development : Baudouin d'Aumeries
Co-Development & Prog : Marc-Olivier Méhu
Technical & hardware support : Manuel Goepfert

Contact : metmap@orbifly.com




SOURCES & CREDITS :

   NOAA       Earth
Advisory